sensor_id;sensor_type;location;lat;lon;timestamp;pressure;altitude;pressure_sealevel;temperature;humidity
52469;BME280;38381;53.688;10.776;2024-02-23T00:04:41;97576.88;;;9.83;67.39
52469;BME280;38381;53.688;10.776;2024-02-23T00:09:42;97593.19;;;9.85;66.92
52469;BME280;38381;53.688;10.776;2024-02-23T00:14:42;97580.69;;;9.74;67.05
52469;BME280;38381;53.688;10.776;2024-02-23T00:19:45;97594.06;;;9.84;67.39
52469;BME280;38381;53.688;10.776;2024-02-23T00:24:46;97611.09;;;9.69;67.49
52469;BME280;38381;53.688;10.776;2024-02-23T00:29:47;97613.63;;;9.71;68.15
52469;BME280;38381;53.688;10.776;2024-02-23T00:34:47;97649.31;;;9.62;68.69
52469;BME280;38381;53.688;10.776;2024-02-23T00:39:47;97647.56;;;9.63;67.71
52469;BME280;38381;53.688;10.776;2024-02-23T00:44:48;97673.19;;;9.47;67.44
52469;BME280;38381;53.688;10.776;2024-02-23T00:49:48;97690.41;;;9.24;64.90
52469;BME280;38381;53.688;10.776;2024-02-23T00:54:49;97684.31;;;9.27;64.93
52469;BME280;38381;53.688;10.776;2024-02-23T00:59:49;97710.06;;;9.06;64.17
52469;BME280;38381;53.688;10.776;2024-02-23T01:04:50;97708.50;;;9.02;63.92
52469;BME280;38381;53.688;10.776;2024-02-23T01:09:50;97714.97;;;8.89;64.44
52469;BME280;38381;53.688;10.776;2024-02-23T01:14:51;97724.09;;;8.99;64.76
52469;BME280;38381;53.688;10.776;2024-02-23T01:19:51;97733.88;;;8.91;65.75
52469;BME280;38381;53.688;10.776;2024-02-23T01:24:52;97731.50;;;8.85;65.76
52469;BME280;38381;53.688;10.776;2024-02-23T01:29:52;97758.38;;;8.79;66.78
52469;BME280;38381;53.688;10.776;2024-02-23T01:34:53;97787.88;;;8.74;68.50
52469;BME280;38381;53.688;10.776;2024-02-23T01:39:53;97880.13;;;8.43;74.79
52469;BME280;38381;53.688;10.776;2024-02-23T01:44:54;97893.78;;;7.27;81.45
52469;BME280;38381;53.688;10.776;2024-02-23T01:49:59;97895.94;;;7.09;82.75
52469;BME280;38381;53.688;10.776;2024-02-23T01:55:00;97906.81;;;6.86;83.60
52469;BME280;38381;53.688;10.776;2024-02-23T02:00:01;97911.41;;;6.75;83.82
52469;BME280;38381;53.688;10.776;2024-02-23T02:05:02;97925.28;;;6.68;84.61
52469;BME280;38381;53.688;10.776;2024-02-23T02:10:06;97953.88;;;6.57;84.32
52469;BME280;38381;53.688;10.776;2024-02-23T02:15:07;97970.03;;;6.63;84.59
52469;BME280;38381;53.688;10.776;2024-02-23T02:20:12;97959.94;;;6.54;84.64
52469;BME280;38381;53.688;10.776;2024-02-23T02:25:14;97981.22;;;6.62;84.33
52469;BME280;38381;53.688;10.776;2024-02-23T02:30:15;97995.91;;;6.57;83.87
52469;BME280;38381;53.688;10.776;2024-02-23T02:35:15;98008.94;;;6.51;83.17
52469;BME280;38381;53.688;10.776;2024-02-23T02:40:15;98022.72;;;6.49;82.80
52469;BME280;38381;53.688;10.776;2024-02-23T02:45:16;98039.81;;;6.51;83.03
52469;BME280;38381;53.688;10.776;2024-02-23T02:50:17;98073.56;;;6.37;82.58
52469;BME280;38381;53.688;10.776;2024-02-23T02:55:18;98085.47;;;6.43;82.16
52469;BME280;38381;53.688;10.776;2024-02-23T03:00:18;98100.56;;;6.60;81.56
52469;BME280;38381;53.688;10.776;2024-02-23T03:05:19;98126.44;;;6.54;80.39
52469;BME280;38381;53.688;10.776;2024-02-23T03:10:19;98144.06;;;6.32;80.33
52469;BME280;38381;53.688;10.776;2024-02-23T03:15:20;98149.78;;;6.46;80.14
52469;BME280;38381;53.688;10.776;2024-02-23T03:20:20;98161.13;;;6.36;79.36
52469;BME280;38381;53.688;10.776;2024-02-23T03:25:20;98188.03;;;6.18;79.37
52469;BME280;38381;53.688;10.776;2024-02-23T03:30:21;98182.81;;;6.21;79.01
52469;BME280;38381;53.688;10.776;2024-02-23T03:35:21;98197.53;;;6.14;78.99
52469;BME280;38381;53.688;10.776;2024-02-23T03:40:22;98214.88;;;6.03;78.82
52469;BME280;38381;53.688;10.776;2024-02-23T03:45:22;98220.88;;;6.03;78.76
52469;BME280;38381;53.688;10.776;2024-02-23T03:50:23;98245.91;;;5.91;78.18
52469;BME280;38381;53.688;10.776;2024-02-23T03:55:23;98241.66;;;5.88;78.51
52469;BME280;38381;53.688;10.776;2024-02-23T04:00:24;98266.50;;;5.91;78.50
52469;BME280;38381;53.688;10.776;2024-02-23T04:05:24;98268.25;;;5.89;78.55
52469;BME280;38381;53.688;10.776;2024-02-23T04:10:25;98286.25;;;5.89;78.11
52469;BME280;38381;53.688;10.776;2024-02-23T04:15:25;98301.72;;;5.85;78.30
52469;BME280;38381;53.688;10.776;2024-02-23T04:20:26;98305.28;;;5.74;79.41
52469;BME280;38381;53.688;10.776;2024-02-23T04:25:26;98319.31;;;5.51;80.73
52469;BME280;38381;53.688;10.776;2024-02-23T04:30:27;98336.44;;;5.54;80.02
52469;BME280;38381;53.688;10.776;2024-02-23T04:35:27;98342.47;;;5.50;80.63
52469;BME280;38381;53.688;10.776;2024-02-23T04:40:29;98357.16;;;5.41;82.31
52469;BME280;38381;53.688;10.776;2024-02-23T04:45:29;98374.44;;;5.27;82.20
52469;BME280;38381;53.688;10.776;2024-02-23T04:50:29;98379.59;;;5.22;81.58
52469;BME280;38381;53.688;10.776;2024-02-23T04:55:30;98391.59;;;5.25;80.86
52469;BME280;38381;53.688;10.776;2024-02-23T05:00:30;98403.63;;;5.20;81.14
52469;BME280;38381;53.688;10.776;2024-02-23T05:05:35;98413.16;;;5.09;80.62
52469;BME280;38381;53.688;10.776;2024-02-23T05:10:35;98413.16;;;5.09;80.96
52469;BME280;38381;53.688;10.776;2024-02-23T05:15:36;98426.84;;;5.11;80.51
52469;BME280;38381;53.688;10.776;2024-02-23T05:20:36;98428.56;;;5.09;80.60
52469;BME280;38381;53.688;10.776;2024-02-23T05:25:37;98454.13;;;5.24;79.84
52469;BME280;38381;53.688;10.776;2024-02-23T05:30:38;98454.91;;;5.31;79.92
52469;BME280;38381;53.688;10.776;2024-02-23T05:35:39;98461.84;;;5.22;79.79
52469;BME280;38381;53.688;10.776;2024-02-23T05:40:41;98473.00;;;5.23;79.28
52469;BME280;38381;53.688;10.776;2024-02-23T05:45:47;98493.44;;;5.35;79.07
52469;BME280;38381;53.688;10.776;2024-02-23T05:50:50;98495.22;;;5.27;79.18
52469;BME280;38381;53.688;10.776;2024-02-23T05:55:58;98502.91;;;5.29;78.12
52469;BME280;38381;53.688;10.776;2024-02-23T06:01:03;98518.50;;;5.07;78.39
52469;BME280;38381;53.688;10.776;2024-02-23T06:06:08;98544.00;;;5.30;78.23
52469;BME280;38381;53.688;10.776;2024-02-23T06:11:10;98544.09;;;5.21;77.59
52469;BME280;38381;53.688;10.776;2024-02-23T06:16:11;98542.38;;;5.18;77.55
52469;BME280;38381;53.688;10.776;2024-02-23T06:21:17;98551.72;;;5.30;77.66
52469;BME280;38381;53.688;10.776;2024-02-23T06:26:18;98575.88;;;5.11;77.40
52469;BME280;38381;53.688;10.776;2024-02-23T06:31:19;98588.59;;;5.24;78.07
52469;BME280;38381;53.688;10.776;2024-02-23T06:36:21;98592.09;;;5.16;77.31
52469;BME280;38381;53.688;10.776;2024-02-23T06:41:22;98600.53;;;5.32;77.02
52469;BME280;38381;53.688;10.776;2024-02-23T06:46:24;98604.00;;;5.26;76.86
52469;BME280;38381;53.688;10.776;2024-02-23T06:51:25;98619.47;;;5.18;76.43
52469;BME280;38381;53.688;10.776;2024-02-23T06:56:26;98629.75;;;5.23;76.73
52469;BME280;38381;53.688;10.776;2024-02-23T07:01:28;98640.91;;;5.19;76.75
52469;BME280;38381;53.688;10.776;2024-02-23T07:06:29;98663.03;;;5.38;76.33
52469;BME280;38381;53.688;10.776;2024-02-23T07:11:33;98670.72;;;5.43;76.52
52469;BME280;38381;53.688;10.776;2024-02-23T07:16:38;98663.88;;;5.40;76.72
52469;BME280;38381;53.688;10.776;2024-02-23T07:21:39;98681.94;;;5.27;77.27
52469;BME280;38381;53.688;10.776;2024-02-23T07:26:40;98690.34;;;5.58;76.87
52469;BME280;38381;53.688;10.776;2024-02-23T07:31:40;98699.81;;;5.50;76.85
52469;BME280;38381;53.688;10.776;2024-02-23T07:36:41;98704.06;;;5.55;77.48
52469;BME280;38381;53.688;10.776;2024-02-23T07:41:41;98726.31;;;5.59;76.94
52469;BME280;38381;53.688;10.776;2024-02-23T07:46:42;98728.78;;;5.76;76.87
52469;BME280;38381;53.688;10.776;2024-02-23T07:51:42;98733.06;;;5.79;77.68
52469;BME280;38381;53.688;10.776;2024-02-23T07:56:43;98738.22;;;5.76;76.33
52469;BME280;38381;53.688;10.776;2024-02-23T08:01:43;98739.88;;;5.81;75.90
52469;BME280;38381;53.688;10.776;2024-02-23T08:06:44;98744.16;;;5.85;75.77
52469;BME280;38381;53.688;10.776;2024-02-23T08:11:44;98738.09;;;5.97;75.70
52469;BME280;38381;53.688;10.776;2024-02-23T08:16:46;98760.44;;;5.89;75.51
52469;BME280;38381;53.688;10.776;2024-02-23T08:21:47;98762.00;;;6.10;74.69
52469;BME280;38381;53.688;10.776;2024-02-23T08:26:47;98759.38;;;6.18;74.05
52469;BME280;38381;53.688;10.776;2024-02-23T08:31:48;98761.91;;;6.26;73.66
52469;BME280;38381;53.688;10.776;2024-02-23T08:36:49;98772.16;;;6.27;71.78
52469;BME280;38381;53.688;10.776;2024-02-23T08:41:49;98777.19;;;6.44;71.54
52469;BME280;38381;53.688;10.776;2024-02-23T08:46:51;98785.78;;;6.43;70.08
52469;BME280;38381;53.688;10.776;2024-02-23T08:51:52;98787.44;;;6.47;70.73
52469;BME280;38381;53.688;10.776;2024-02-23T08:56:52;98793.31;;;6.61;70.17
52469;BME280;38381;53.688;10.776;2024-02-23T09:01:53;98807.94;;;6.59;70.42
52469;BME280;38381;53.688;10.776;2024-02-23T09:06:53;98814.72;;;6.73;69.45
52469;BME280;38381;53.688;10.776;2024-02-23T09:11:54;98827.41;;;6.91;68.75
52469;BME280;38381;53.688;10.776;2024-02-23T09:16:54;98838.38;;;7.10;67.74
52469;BME280;38381;53.688;10.776;2024-02-23T09:21:55;98828.00;;;7.18;67.71
52469;BME280;38381;53.688;10.776;2024-02-23T09:26:55;98852.88;;;7.20;67.03
52469;BME280;38381;53.688;10.776;2024-02-23T09:31:56;98858.81;;;7.25;67.21
52469;BME280;38381;53.688;10.776;2024-02-23T09:36:56;98866.69;;;7.13;66.66
52469;BME280;38381;53.688;10.776;2024-02-23T09:41:56;98875.31;;;7.12;66.33
52469;BME280;38381;53.688;10.776;2024-02-23T09:46:57;98879.63;;;7.10;66.64
52469;BME280;38381;53.688;10.776;2024-02-23T09:51:58;98884.78;;;7.07;66.84
52469;BME280;38381;53.688;10.776;2024-02-23T09:56:58;98890.88;;;7.01;66.35
52469;BME280;38381;53.688;10.776;2024-02-23T10:01:59;98907.19;;;7.02;66.85
52469;BME280;38381;53.688;10.776;2024-02-23T10:07:00;98922.53;;;7.14;66.71
52469;BME280;38381;53.688;10.776;2024-02-23T10:12:01;98931.19;;;7.09;65.44
52469;BME280;38381;53.688;10.776;2024-02-23T10:17:02;98945.81;;;7.08;65.17
52469;BME280;38381;53.688;10.776;2024-02-23T10:22:03;98950.91;;;7.14;64.30
52469;BME280;38381;53.688;10.776;2024-02-23T10:27:03;98961.94;;;7.29;64.57
52469;BME280;38381;53.688;10.776;2024-02-23T10:32:05;98968.91;;;7.19;64.00
52469;BME280;38381;53.688;10.776;2024-02-23T10:37:07;98979.19;;;7.22;64.35
52469;BME280;38381;53.688;10.776;2024-02-23T10:42:09;98991.09;;;7.35;64.04
52469;BME280;38381;53.688;10.776;2024-02-23T10:47:11;98985.72;;;7.58;62.54
52469;BME280;38381;53.688;10.776;2024-02-23T10:52:12;98984.59;;;7.84;61.80
52469;BME280;38381;53.688;10.776;2024-02-23T10:57:14;98994.88;;;7.87;61.14
52469;BME280;38381;53.688;10.776;2024-02-23T11:02:19;98997.44;;;7.92;59.53
52469;BME280;38381;53.688;10.776;2024-02-23T11:07:20;98992.22;;;7.95;57.35
52469;BME280;38381;53.688;10.776;2024-02-23T11:12:30;99008.63;;;7.89;56.38
52469;BME280;38381;53.688;10.776;2024-02-23T11:17:32;99005.03;;;8.02;56.91
52469;BME280;38381;53.688;10.776;2024-02-23T11:22:34;99000.03;;;7.90;57.63
52469;BME280;38381;53.688;10.776;2024-02-23T11:27:38;99023.88;;;8.12;56.85
52469;BME280;38381;53.688;10.776;2024-02-23T11:32:46;99002.31;;;8.15;56.14
52469;BME280;38381;53.688;10.776;2024-02-23T11:37:51;98999.59;;;8.24;57.03
52469;BME280;38381;53.688;10.776;2024-02-23T11:42:57;99003.22;;;8.11;56.97
52469;BME280;38381;53.688;10.776;2024-02-23T11:48:00;99000.44;;;8.27;58.10
52469;BME280;38381;53.688;10.776;2024-02-23T11:53:01;98990.84;;;8.37;58.17
52469;BME280;38381;53.688;10.776;2024-02-23T11:58:01;98989.19;;;8.32;57.18
52469;BME280;38381;53.688;10.776;2024-02-23T12:03:02;98984.94;;;8.27;57.30
52469;BME280;38381;53.688;10.776;2024-02-23T12:08:04;98976.03;;;8.53;57.14
52469;BME280;38381;53.688;10.776;2024-02-23T12:13:09;98971.81;;;8.46;57.75
52469;BME280;38381;53.688;10.776;2024-02-23T12:18:10;98975.03;;;8.63;57.52
52469;BME280;38381;53.688;10.776;2024-02-23T12:23:11;98974.59;;;8.31;56.98
52469;BME280;38381;53.688;10.776;2024-02-23T12:28:18;98976.31;;;8.29;56.92
52469;BME280;38381;53.688;10.776;2024-02-23T12:33:20;98977.72;;;8.53;56.54
52469;BME280;38381;53.688;10.776;2024-02-23T12:38:20;98989.94;;;8.40;56.00
52469;BME280;38381;53.688;10.776;2024-02-23T12:43:21;99000.97;;;8.54;55.91
52469;BME280;38381;53.688;10.776;2024-02-23T12:48:24;99003.06;;;8.23;55.90
52469;BME280;38381;53.688;10.776;2024-02-23T12:53:38;98997.75;;;8.37;55.23
52469;BME280;38381;53.688;10.776;2024-02-23T12:58:43;99002.72;;;8.52;55.34
52469;BME280;38381;53.688;10.776;2024-02-23T13:03:44;99011.81;;;8.14;55.87
52469;BME280;38381;53.688;10.776;2024-02-23T13:08:44;99013.91;;;8.54;55.96
52469;BME280;38381;53.688;10.776;2024-02-23T13:13:44;99022.69;;;8.41;56.72
52469;BME280;38381;53.688;10.776;2024-02-23T13:18:45;99026.16;;;8.37;56.12
52469;BME280;38381;53.688;10.776;2024-02-23T13:23:47;99026.13;;;8.41;55.09
52469;BME280;38381;53.688;10.776;2024-02-23T13:28:47;99044.25;;;8.34;54.45
52469;BME280;38381;53.688;10.776;2024-02-23T13:33:47;99039.03;;;8.41;54.77
52469;BME280;38381;53.688;10.776;2024-02-23T13:38:48;99050.19;;;8.45;55.04
52469;BME280;38381;53.688;10.776;2024-02-23T13:43:48;99049.38;;;8.38;54.63
52469;BME280;38381;53.688;10.776;2024-02-23T13:49:02;99047.66;;;8.39;54.95
52469;BME280;38381;53.688;10.776;2024-02-23T13:54:03;99041.66;;;8.35;55.99
52469;BME280;38381;53.688;10.776;2024-02-23T13:59:04;99046.13;;;8.22;55.88
52469;BME280;38381;53.688;10.776;2024-02-23T14:04:07;99050.34;;;8.30;55.22
52469;BME280;38381;53.688;10.776;2024-02-23T14:09:09;99063.91;;;8.49;55.75
52469;BME280;38381;53.688;10.776;2024-02-23T14:14:09;99065.91;;;8.23;55.71
52469;BME280;38381;53.688;10.776;2024-02-23T14:19:09;99069.91;;;8.51;55.82
52469;BME280;38381;53.688;10.776;2024-02-23T14:24:10;99068.41;;;8.31;55.22
52469;BME280;38381;53.688;10.776;2024-02-23T14:29:10;99070.97;;;8.33;56.04
52469;BME280;38381;53.688;10.776;2024-02-23T14:34:11;99079.66;;;8.25;55.69
52469;BME280;38381;53.688;10.776;2024-02-23T14:39:11;99078.03;;;8.15;56.39
52469;BME280;38381;53.688;10.776;2024-02-23T14:44:13;99085.72;;;8.20;56.75
52469;BME280;38381;53.688;10.776;2024-02-23T14:49:13;99089.00;;;8.39;56.11
52469;BME280;38381;53.688;10.776;2024-02-23T14:54:14;99092.44;;;8.36;56.71
52469;BME280;38381;53.688;10.776;2024-02-23T14:59:15;99098.81;;;8.06;58.69
52469;BME280;38381;53.688;10.776;2024-02-23T15:04:15;99100.75;;;7.84;59.50
52469;BME280;38381;53.688;10.776;2024-02-23T15:09:15;99106.69;;;7.91;59.10
52469;BME280;38381;53.688;10.776;2024-02-23T15:14:16;99094.69;;;7.86;59.31
52469;BME280;38381;53.688;10.776;2024-02-23T15:19:16;99095.41;;;8.01;59.50
52469;BME280;38381;53.688;10.776;2024-02-23T15:24:17;99087.59;;;8.10;59.17
52469;BME280;38381;53.688;10.776;2024-02-23T15:29:18;99079.78;;;8.12;59.74
52469;BME280;38381;53.688;10.776;2024-02-23T15:34:18;99088.50;;;8.04;58.83
52469;BME280;38381;53.688;10.776;2024-02-23T15:39:19;99079.06;;;8.02;59.23
52469;BME280;38381;53.688;10.776;2024-02-23T15:44:19;99086.69;;;8.14;59.13
52469;BME280;38381;53.688;10.776;2024-02-23T15:49:20;99088.50;;;8.04;59.45
52469;BME280;38381;53.688;10.776;2024-02-23T15:54:20;99104.75;;;8.13;59.23
52469;BME280;38381;53.688;10.776;2024-02-23T15:59:21;99112.50;;;8.14;59.21
52469;BME280;38381;53.688;10.776;2024-02-23T16:04:22;99114.13;;;8.21;58.64
52469;BME280;38381;53.688;10.776;2024-02-23T16:09:22;99110.03;;;8.02;59.97
52469;BME280;38381;53.688;10.776;2024-02-23T16:14:23;99113.47;;;8.04;60.16
52469;BME280;38381;53.688;10.776;2024-02-23T16:19:23;99123.19;;;7.74;59.73
52469;BME280;38381;53.688;10.776;2024-02-23T16:24:24;99121.44;;;7.75;59.95
52469;BME280;38381;53.688;10.776;2024-02-23T16:29:24;99112.81;;;7.79;59.73
52469;BME280;38381;53.688;10.776;2024-02-23T16:34:25;99119.59;;;7.91;59.41
52469;BME280;38381;53.688;10.776;2024-02-23T16:39:25;99113.47;;;7.99;59.08
52469;BME280;38381;53.688;10.776;2024-02-23T16:44:26;99124.75;;;7.91;59.54
52469;BME280;38381;53.688;10.776;2024-02-23T16:49:26;99123.19;;;7.77;60.39
52469;BME280;38381;53.688;10.776;2024-02-23T16:54:27;99133.59;;;7.60;61.02
52469;BME280;38381;53.688;10.776;2024-02-23T16:59:27;99139.34;;;7.96;60.54
52469;BME280;38381;53.688;10.776;2024-02-23T17:04:27;99152.47;;;7.73;60.90
52469;BME280;38381;53.688;10.776;2024-02-23T17:09:28;99158.50;;;7.68;60.94
52469;BME280;38381;53.688;10.776;2024-02-23T17:14:28;99168.69;;;7.88;60.56
52469;BME280;38381;53.688;10.776;2024-02-23T17:19:29;99180.84;;;7.73;60.79
52469;BME280;38381;53.688;10.776;2024-02-23T17:24:30;99174.78;;;7.77;60.65
52469;BME280;38381;53.688;10.776;2024-02-23T17:29:30;99174.84;;;7.68;61.30
52469;BME280;38381;53.688;10.776;2024-02-23T17:34:31;99177.53;;;7.53;61.70
52469;BME280;38381;53.688;10.776;2024-02-23T17:39:32;99185.25;;;7.54;61.55
52469;BME280;38381;53.688;10.776;2024-02-23T17:44:33;99183.50;;;7.56;61.50
52469;BME280;38381;53.688;10.776;2024-02-23T17:49:33;99184.44;;;7.49;61.94
52469;BME280;38381;53.688;10.776;2024-02-23T17:54:34;99196.56;;;7.36;62.43
52469;BME280;38381;53.688;10.776;2024-02-23T17:59:34;99187.09;;;7.35;62.19
52469;BME280;38381;53.688;10.776;2024-02-23T18:04:35;99189.66;;;7.38;62.47
52469;BME280;38381;53.688;10.776;2024-02-23T18:09:35;99209.50;;;7.27;62.33
52469;BME280;38381;53.688;10.776;2024-02-23T18:14:36;99219.88;;;7.15;63.37
52469;BME280;38381;53.688;10.776;2024-02-23T18:19:36;99225.00;;;7.22;63.11
52469;BME280;38381;53.688;10.776;2024-02-23T18:24:37;99225.88;;;7.15;63.67
52469;BME280;38381;53.688;10.776;2024-02-23T18:29:38;99227.63;;;7.09;63.88
52469;BME280;38381;53.688;10.776;2024-02-23T18:34:39;99223.34;;;7.08;64.03
52469;BME280;38381;53.688;10.776;2024-02-23T18:39:39;99231.06;;;7.11;64.23
52469;BME280;38381;53.688;10.776;2024-02-23T18:44:39;99235.44;;;6.85;64.85
52469;BME280;38381;53.688;10.776;2024-02-23T18:49:40;99239.72;;;6.90;64.61
52469;BME280;38381;53.688;10.776;2024-02-23T18:54:41;99238.03;;;6.84;65.22
52469;BME280;38381;53.688;10.776;2024-02-23T18:59:41;99229.47;;;6.79;65.25
52469;BME280;38381;53.688;10.776;2024-02-23T19:04:42;99239.75;;;6.76;65.48
52469;BME280;38381;53.688;10.776;2024-02-23T19:09:42;99242.34;;;6.73;65.53
52469;BME280;38381;53.688;10.776;2024-02-23T19:14:43;99244.00;;;6.92;65.26
52469;BME280;38381;53.688;10.776;2024-02-23T19:19:43;99245.78;;;6.79;65.24
52469;BME280;38381;53.688;10.776;2024-02-23T19:24:44;99240.66;;;6.65;65.95
52469;BME280;38381;53.688;10.776;2024-02-23T19:29:44;99254.38;;;6.74;65.83
52469;BME280;38381;53.688;10.776;2024-02-23T19:34:44;99250.13;;;6.54;66.77
52469;BME280;38381;53.688;10.776;2024-02-23T19:39:45;99250.94;;;6.72;66.49
52469;BME280;38381;53.688;10.776;2024-02-23T19:44:46;99243.25;;;6.50;66.79
52469;BME280;38381;53.688;10.776;2024-02-23T19:49:46;99269.03;;;6.42;66.93
52469;BME280;38381;53.688;10.776;2024-02-23T19:54:47;99258.69;;;6.58;66.68
52469;BME280;38381;53.688;10.776;2024-02-23T19:59:48;99269.03;;;6.42;66.85
52469;BME280;38381;53.688;10.776;2024-02-23T20:04:48;99270.72;;;6.25;67.54
52469;BME280;38381;53.688;10.776;2024-02-23T20:09:52;99289.63;;;6.29;67.75
52469;BME280;38381;53.688;10.776;2024-02-23T20:14:52;99286.19;;;6.16;68.24
52469;BME280;38381;53.688;10.776;2024-02-23T20:19:53;99290.47;;;6.24;67.62
52469;BME280;38381;53.688;10.776;2024-02-23T20:24:53;99296.50;;;6.28;68.44
52469;BME280;38381;53.688;10.776;2024-02-23T20:29:53;99299.06;;;6.36;67.74
52469;BME280;38381;53.688;10.776;2024-02-23T20:34:54;99301.66;;;6.30;67.97
52469;BME280;38381;53.688;10.776;2024-02-23T20:39:54;99309.34;;;6.16;69.41
52469;BME280;38381;53.688;10.776;2024-02-23T20:44:55;99329.94;;;6.03;69.43
52469;BME280;38381;53.688;10.776;2024-02-23T20:49:55;99332.50;;;6.07;69.43
52469;BME280;38381;53.688;10.776;2024-02-23T20:54:55;99341.91;;;6.04;69.32
52469;BME280;38381;53.688;10.776;2024-02-23T20:59:56;99331.63;;;6.06;69.47
52469;BME280;38381;53.688;10.776;2024-02-23T21:04:57;99335.91;;;6.02;69.66
52469;BME280;38381;53.688;10.776;2024-02-23T21:09:58;99339.25;;;5.80;70.43
52469;BME280;38381;53.688;10.776;2024-02-23T21:14:58;99338.44;;;5.85;70.42
52469;BME280;38381;53.688;10.776;2024-02-23T21:19:59;99336.69;;;5.81;69.87
52469;BME280;38381;53.688;10.776;2024-02-23T21:24:59;99337.59;;;5.87;69.34
52469;BME280;38381;53.688;10.776;2024-02-23T21:30:00;99336.72;;;5.94;69.31
52469;BME280;38381;53.688;10.776;2024-02-23T21:35:01;99338.44;;;5.87;69.99
52469;BME280;38381;53.688;10.776;2024-02-23T21:40:02;99353.84;;;5.70;70.48
52469;BME280;38381;53.688;10.776;2024-02-23T21:45:02;99355.53;;;5.70;70.53
52469;BME280;38381;53.688;10.776;2024-02-23T21:50:03;99350.41;;;5.77;70.72
52469;BME280;38381;53.688;10.776;2024-02-23T21:55:05;99342.66;;;5.71;70.26
52469;BME280;38381;53.688;10.776;2024-02-23T22:00:06;99348.69;;;5.75;71.11
52469;BME280;38381;53.688;10.776;2024-02-23T22:05:07;99345.25;;;5.73;71.28
52469;BME280;38381;53.688;10.776;2024-02-23T22:10:08;99351.19;;;5.55;71.61
52469;BME280;38381;53.688;10.776;2024-02-23T22:15:10;99347.75;;;5.57;71.33
52469;BME280;38381;53.688;10.776;2024-02-23T22:20:10;99348.63;;;5.55;71.12
52469;BME280;38381;53.688;10.776;2024-02-23T22:25:12;99345.19;;;5.50;71.59
52469;BME280;38381;53.688;10.776;2024-02-23T22:30:12;99333.94;;;5.31;71.79
52469;BME280;38381;53.688;10.776;2024-02-23T22:35:13;99342.53;;;5.34;72.44
52469;BME280;38381;53.688;10.776;2024-02-23T22:40:14;99348.41;;;5.09;72.87
52469;BME280;38381;53.688;10.776;2024-02-23T22:45:14;99363.78;;;5.06;74.10
52469;BME280;38381;53.688;10.776;2024-02-23T22:50:15;99356.03;;;4.98;73.86
52469;BME280;38381;53.688;10.776;2024-02-23T22:55:16;99351.72;;;4.95;73.21
52469;BME280;38381;53.688;10.776;2024-02-23T23:00:17;99355.22;;;5.00;73.61
52469;BME280;38381;53.688;10.776;2024-02-23T23:05:17;99361.16;;;4.95;73.99
52469;BME280;38381;53.688;10.776;2024-02-23T23:10:18;99372.13;;;4.75;73.88
52469;BME280;38381;53.688;10.776;2024-02-23T23:15:18;99371.25;;;4.69;74.58
52469;BME280;38381;53.688;10.776;2024-02-23T23:20:19;99384.06;;;4.64;75.08
52469;BME280;38381;53.688;10.776;2024-02-23T23:25:19;99395.16;;;4.64;75.18
52469;BME280;38381;53.688;10.776;2024-02-23T23:30:20;99396.00;;;4.62;75.70
52469;BME280;38381;53.688;10.776;2024-02-23T23:35:20;99397.81;;;4.75;74.42
52469;BME280;38381;53.688;10.776;2024-02-23T23:40:21;99390.06;;;4.66;75.55
52469;BME280;38381;53.688;10.776;2024-02-23T23:45:21;99394.28;;;4.62;75.48
52469;BME280;38381;53.688;10.776;2024-02-23T23:50:22;99401.06;;;4.54;75.97
52469;BME280;38381;53.688;10.776;2024-02-23T23:55:23;99397.69;;;4.55;75.72
